Time;durP1;ratioP1;P1;durP2;ratioP2;P2;SDS_P1;SDS_P2;PMS_P1;PMS_P2;Temp;Humidity;BMP_temperature;BMP_pressure;BME280_temperature;BME280_humidity;BME280_pressure;Samples;Min_cycle;Max_cycle;Signal;HPM_P1;HPM_P2
2023/03/08 00:01:15;;;;;;;2.60;2.40;;;;;;;1.91;75.42;98584.30;107202;1254;1016539;-73
2023/03/08 00:06:10;;;;;;;2.80;2.50;;;;;;;1.92;75.52;98589.95;107206;1255;1065282;-73
2023/03/08 00:11:08;;;;;;;4.30;2.70;;;;;;;1.87;75.56;98591.73;107171;1253;1071126;-73
2023/03/08 00:16:02;;;;;;;2.80;2.10;;;;;;;1.84;75.58;98590.15;107289;1256;1052333;-73
2023/03/08 00:21:04;;;;;;;5.90;2.50;;;;;;;1.76;75.47;98591.71;107075;1256;1058906;-73
2023/03/08 00:25:56;;;;;;;2.60;2.20;;;;;;;1.69;75.76;98596.02;107164;1254;1072801;-73
2023/03/08 00:31:16;;;;;;;6.90;3.50;;;;;;;1.67;75.88;98592.92;107197;1254;1016784;-73
2023/03/08 00:36:16;;;;;;;5.10;2.90;;;;;;;1.63;76.08;98592.51;107208;1255;1071611;-73
2023/03/08 00:41:10;;;;;;;5.00;2.80;;;;;;;1.60;76.08;98588.17;107208;1254;1049758;-73
2023/03/08 00:46:03;;;;;;;5.70;2.40;;;;;;;1.54;76.12;98588.24;107214;1256;1018201;-73
2023/03/08 00:50:55;;;;;;;2.60;1.70;;;;;;;1.50;76.66;98584.91;107111;1255;1016448;-73
2023/03/08 00:55:50;;;;;;;3.60;2.40;;;;;;;1.46;76.36;98579.89;107301;1256;1016282;-73
2023/03/08 01:00:44;;;;;;;3.70;2.80;;;;;;;1.42;76.62;98582.38;107163;1253;1070678;-73
2023/03/08 01:05:41;;;;;;;5.00;3.20;;;;;;;1.40;76.75;98582.34;107220;1253;1016755;-73
2023/03/08 01:10:35;;;;;;;5.40;3.20;;;;;;;1.40;77.04;98585.93;107148;1254;1058355;-73
2023/03/08 01:15:28;;;;;;;3.60;3.10;;;;;;;1.41;77.28;98590.37;107102;1254;1016348;-72
2023/03/08 01:20:21;;;;;;;3.70;3.10;;;;;;;1.35;77.08;98587.70;107181;1254;1016342;-73
2023/03/08 01:25:14;;;;;;;5.60;4.00;;;;;;;1.31;77.20;98589.33;107101;1254;1016234;-73
2023/03/08 01:30:07;;;;;;;7.30;3.70;;;;;;;1.27;77.24;98593.69;107205;1254;1016489;-73
2023/03/08 01:35:03;;;;;;;5.40;4.40;;;;;;;1.23;77.22;98593.45;107277;1254;1016306;-73
2023/03/08 01:39:56;;;;;;;5.50;4.30;;;;;;;1.22;77.43;98584.38;107289;1256;1072731;-73
2023/03/08 01:45:00;;;;;;;5.40;4.10;;;;;;;1.20;77.39;98582.45;107283;1254;1016467;-73
2023/03/08 01:50:09;;;;;;;4.40;3.80;;;;;;;1.18;77.74;98581.71;107900;1253;1071357;-73
2023/03/08 01:55:11;;;;;;;3.50;3.00;;;;;;;1.10;77.51;98588.58;106954;1256;1051793;-72
2023/03/08 02:00:16;;;;;;;3.80;2.80;;;;;;;1.09;77.72;98589.41;107114;1256;1058215;-73
2023/03/08 02:05:12;;;;;;;5.20;2.80;;;;;;;1.07;77.80;98584.60;107021;1257;1072962;-73
2023/03/08 02:10:06;;;;;;;5.40;3.80;;;;;;;1.06;77.83;98586.09;106992;1256;1016431;-73
2023/03/08 02:15:14;;;;;;;5.40;3.80;;;;;;;1.05;77.98;98585.58;106927;1258;1070235;-73
2023/03/08 02:20:17;;;;;;;7.30;3.00;;;;;;;1.00;77.74;98583.41;106906;1256;1051458;-73
2023/03/08 02:25:22;;;;;;;3.60;2.80;;;;;;;0.96;77.65;98587.26;107059;1256;1151946;-72
2023/03/08 02:30:24;;;;;;;2.70;1.90;;;;;;;0.91;78.09;98588.49;107059;1257;1075785;-73
2023/03/08 02:35:18;;;;;;;2.70;2.00;;;;;;;0.85;78.05;98594.19;107056;1256;1064915;-73
2023/03/08 02:40:14;;;;;;;2.70;1.80;;;;;;;0.83;77.91;98596.88;107091;1256;1071235;-73
2023/03/08 02:45:12;;;;;;;2.80;2.00;;;;;;;0.85;78.25;98610.38;106950;1258;1050678;-73
2023/03/08 02:50:08;;;;;;;2.70;2.10;;;;;;;0.83;78.12;98616.13;107060;1257;1060784;-73
2023/03/08 02:55:05;;;;;;;6.50;1.80;;;;;;;0.84;78.25;98610.35;107022;1259;1016200;-73
2023/03/08 02:59:58;;;;;;;4.90;2.20;;;;;;;0.82;78.13;98606.73;107135;1256;1065694;-73
2023/03/08 03:04:52;;;;;;;2.30;1.10;;;;;;;0.78;77.96;98610.91;106902;1257;1016903;-73
2023/03/08 03:09:45;;;;;;;3.00;1.90;;;;;;;0.72;78.37;98622.58;107059;1256;1016378;-72
2023/03/08 03:14:38;;;;;;;2.20;1.60;;;;;;;0.70;78.40;98623.19;107028;1256;1016467;-73
2023/03/08 03:19:35;;;;;;;3.40;1.70;;;;;;;0.67;78.27;98628.91;106991;1259;1072634;-73
2023/03/08 03:24:28;;;;;;;3.80;1.80;;;;;;;0.70;78.59;98630.69;107022;1256;1016385;-72
2023/03/08 03:29:30;;;;;;;3.70;2.90;;;;;;;0.71;78.59;98630.37;107028;1257;1071355;-72
2023/03/08 03:34:31;;;;;;;3.50;1.60;;;;;;;0.68;78.69;98643.77;107141;1256;1050688;-72
2023/03/08 03:39:25;;;;;;;3.00;1.80;;;;;;;0.68;78.47;98644.78;107086;1256;1016191;-73
2023/03/08 03:44:18;;;;;;;2.40;1.80;;;;;;;0.70;78.59;98645.18;107109;1258;1016449;-73
2023/03/08 03:49:12;;;;;;;1.40;1.30;;;;;;;0.68;78.74;98645.14;107123;1256;1016434;-73
2023/03/08 03:54:07;;;;;;;6.30;2.00;;;;;;;0.69;78.50;98659.83;107049;1256;1070736;-72
2023/03/08 03:59:02;;;;;;;3.30;1.80;;;;;;;0.68;78.63;98662.86;107016;1256;1050895;-72
2023/03/08 04:03:58;;;;;;;2.10;1.80;;;;;;;0.67;78.89;98666.09;106997;1256;1016917;-73
2023/03/08 04:08:54;;;;;;;2.60;1.90;;;;;;;0.67;78.60;98678.69;107023;1256;1073105;-73
2023/03/08 04:13:50;;;;;;;4.90;2.00;;;;;;;0.66;79.03;98682.44;107137;1256;1064639;-72
2023/03/08 04:18:45;;;;;;;3.00;2.00;;;;;;;0.68;78.90;98684.70;107001;1256;1070534;-73
2023/03/08 04:23:40;;;;;;;5.40;2.70;;;;;;;0.66;79.03;98694.39;107022;1258;1051540;-72
2023/03/08 04:28:44;;;;;;;7.30;3.60;;;;;;;0.68;79.07;98689.80;107026;1256;1058087;-72
2023/03/08 04:33:46;;;;;;;4.90;3.10;;;;;;;0.66;79.17;98689.09;107071;1256;1072704;-73
2023/03/08 04:38:45;;;;;;;5.30;4.20;;;;;;;0.68;79.04;98695.97;107002;1260;1066219;-73
2023/03/08 04:43:51;;;;;;;6.00;4.00;;;;;;;0.69;79.30;98705.20;106961;1257;1071114;-72
2023/03/08 04:48:57;;;;;;;;;;;;;;;0.65;79.53;98701.34;106973;1256;1051191;-73
2023/03/08 04:53:56;;;;;;;5.50;4.60;;;;;;;0.64;79.52;98702.66;106993;1257;1058788;-73
2023/03/08 04:58:55;;;;;;;6.70;4.70;;;;;;;0.63;79.76;98699.23;107070;1256;1072566;-72
2023/03/08 05:03:53;;;;;;;12.00;6.30;;;;;;;0.59;79.48;98704.42;107013;1259;1064959;-73
2023/03/08 05:08:56;;;;;;;8.00;5.40;;;;;;;0.58;79.77;98705.77;107103;1261;1070902;-73
2023/03/08 05:13:53;;;;;;;7.80;5.90;;;;;;;0.58;79.76;98708.83;107076;1256;1050560;-73
2023/03/08 05:19:02;;;;;;;7.80;6.70;;;;;;;0.54;79.82;98711.64;107052;1257;1058403;-72
2023/03/08 05:24:02;;;;;;;11.90;8.40;;;;;;;0.51;79.90;98716.85;106951;1256;1073417;-72
2023/03/08 05:29:06;;;;;;;9.00;6.80;;;;;;;0.54;80.12;98728.33;107117;1256;1065560;-74
2023/03/08 05:34:00;;;;;;;8.80;6.60;;;;;;;0.59;80.17;98741.59;107050;1259;1072717;-73
2023/03/08 05:39:01;;;;;;;10.90;8.00;;;;;;;0.59;79.94;98749.28;107057;1256;1049505;-73
2023/03/08 05:44:05;;;;;;;10.40;7.90;;;;;;;0.62;80.18;98757.55;106832;1257;1058073;-73
2023/03/08 05:49:00;;;;;;;12.80;8.50;;;;;;;0.66;80.14;98762.58;106988;1259;1072399;-73
2023/03/08 05:53:58;;;;;;;12.70;8.10;;;;;;;0.70;79.88;98764.91;107021;1256;1064831;-73
2023/03/08 05:59:15;;;;;;;14.00;8.80;;;;;;;0.77;79.49;98770.34;107036;1256;1070456;-73
2023/03/08 06:04:16;;;;;;;11.80;7.80;;;;;;;0.89;79.12;98777.46;106812;1256;1051431;-73
2023/03/08 06:09:22;;;;;;;12.40;8.30;;;;;;;0.96;78.98;98788.89;106923;1258;1058348;-73
2023/03/08 06:14:25;;;;;;;9.20;7.80;;;;;;;0.99;78.67;98806.54;107068;1256;1072230;-73
2023/03/08 06:19:22;;;;;;;7.80;5.80;;;;;;;1.00;78.79;98817.83;107081;1256;1065189;-73
2023/03/08 06:24:25;;;;;;;8.40;7.50;;;;;;;0.97;78.32;98827.48;107116;1256;1071243;-73
2023/03/08 06:29:21;;;;;;;11.20;8.90;;;;;;;0.93;78.40;98838.64;107116;1256;1050928;-72
2023/03/08 06:34:26;;;;;;;10.20;8.00;;;;;;;0.95;78.19;98847.23;107202;1256;1058064;-72
2023/03/08 06:39:26;;;;;;;14.90;9.00;;;;;;;0.97;78.25;98857.14;107099;1256;1072803;-72
2023/03/08 06:44:31;;;;;;;11.00;6.90;;;;;;;0.99;78.00;98865.05;107034;1256;1064991;-72
2023/03/08 06:49:24;;;;;;;;;;;;;;;0.97;78.13;98871.51;107093;1259;1070280;-73
2023/03/08 06:54:21;;;;;;;9.20;7.30;;;;;;;1.01;77.57;98879.26;106885;1256;1016398;-74
2023/03/08 06:59:25;;;;;;;9.60;6.90;;;;;;;1.26;77.12;98888.45;107052;1260;1058282;-73
2023/03/08 07:04:21;;;;;;;11.20;8.10;;;;;;;1.76;76.30;98893.89;107074;1257;1072440;-73
2023/03/08 07:09:14;;;;;;;9.00;7.50;;;;;;;2.03;75.22;98892.09;107121;1256;1065655;-73
2023/03/08 07:14:24;;;;;;;7.80;6.50;;;;;;;1.91;74.81;98897.31;106968;1256;1073083;-73
2023/03/08 07:19:21;;;;;;;9.60;7.20;;;;;;;1.97;74.94;98903.41;106999;1258;1051102;-73
2023/03/08 07:24:34;;;;;;;9.80;5.90;;;;;;;1.86;74.54;98907.28;107058;1256;1058721;-72
2023/03/08 07:29:38;;;;;;;8.60;6.80;;;;;;;1.86;74.28;98916.52;106946;1262;1072363;-73
2023/03/08 07:34:31;;;;;;;8.40;6.20;;;;;;;2.05;74.31;98916.41;106897;1257;1016433;-73
2023/03/08 07:39:24;;;;;;;11.40;6.00;;;;;;;2.05;73.57;98919.48;107018;1256;1016342;-73
2023/03/08 07:44:17;;;;;;;7.60;6.00;;;;;;;2.21;72.89;98919.85;107039;1256;1017533;-73
2023/03/08 07:49:11;;;;;;;9.10;5.10;;;;;;;2.47;72.61;98925.52;107025;1256;1016271;-73
2023/03/08 07:54:11;;;;;;;7.50;5.40;;;;;;;2.93;71.70;98928.48;106907;1259;1073213;-74
2023/03/08 07:59:04;;;;;;;7.80;5.20;;;;;;;5.41;68.73;98922.80;106903;1258;1065733;-74
2023/03/08 08:04:11;;;;;;;7.30;5.40;;;;;;;6.42;67.04;98927.67;106869;1257;1016473;-74
2023/03/08 08:09:10;;;;;;;6.30;4.40;;;;;;;7.57;64.44;98931.98;106893;1262;1050680;-74
2023/03/08 08:14:06;;;;;;;5.20;4.40;;;;;;;7.19;65.00;98938.66;106790;1262;1058269;-74
2023/03/08 08:19:03;;;;;;;7.60;4.60;;;;;;;6.80;63.54;98944.73;106911;1262;1072983;-73
2023/03/08 08:24:00;;;;;;;7.20;4.20;;;;;;;6.87;63.10;98948.35;106818;1257;1017593;-74
2023/03/08 08:28:54;;;;;;;6.30;4.30;;;;;;;7.24;62.93;98948.14;106753;1257;1071731;-74
2023/03/08 08:33:53;;;;;;;6.30;3.70;;;;;;;7.09;61.75;98954.30;106834;1258;1016380;-73
2023/03/08 08:38:55;;;;;;;6.10;3.60;;;;;;;6.18;62.29;98960.23;106789;1260;1058666;-74
2023/03/08 08:43:51;;;;;;;6.00;4.10;;;;;;;5.36;62.50;98966.77;106863;1257;1072853;-75
2023/03/08 08:48:44;;;;;;;5.80;4.20;;;;;;;5.20;63.22;98972.63;106862;1257;1065642;-74
2023/03/08 08:53:38;;;;;;;6.50;4.30;;;;;;;5.30;63.37;98974.27;107037;1261;1017264;-75
2023/03/08 08:58:31;;;;;;;6.50;4.30;;;;;;;5.59;62.57;98969.58;107122;1256;1016359;-73
2023/03/08 09:03:24;;;;;;;5.70;4.10;;;;;;;5.56;62.43;98975.02;107063;1256;1016764;-73
2023/03/08 09:08:20;;;;;;;5.40;3.70;;;;;;;5.87;61.26;98973.77;107072;1256;1073010;-73
2023/03/08 09:13:16;;;;;;;4.90;3.90;;;;;;;5.70;61.33;98977.40;107045;1257;1016436;-73
2023/03/08 09:18:11;;;;;;;4.80;3.70;;;;;;;5.57;60.72;98983.30;106947;1259;1071536;-73
2023/03/08 09:23:05;;;;;;;5.10;3.60;;;;;;;5.01;61.09;98992.00;107110;1262;1016470;-73
2023/03/08 09:27:58;;;;;;;4.90;3.80;;;;;;;4.71;61.38;98997.13;107135;1257;1016229;-73
2023/03/08 09:32:51;;;;;;;6.70;4.50;;;;;;;4.89;60.64;98995.80;107040;1257;1015858;-73
2023/03/08 09:37:44;;;;;;;4.80;3.80;;;;;;;4.77;61.44;98997.89;107126;1260;1016489;-73
2023/03/08 09:42:38;;;;;;;5.50;3.80;;;;;;;4.64;60.43;98995.14;107048;1257;1021148;-72
2023/03/08 09:47:49;;;;;;;4.80;3.70;;;;;;;4.84;60.77;98992.23;107134;1258;1016315;-73
2023/03/08 09:52:49;;;;;;;5.00;3.10;;;;;;;6.72;58.82;98976.91;106932;1261;1061391;-73
2023/03/08 09:57:52;;;;;;;5.50;3.10;;;;;;;6.76;58.61;98983.30;106817;1263;1074892;-73
2023/03/08 10:02:57;;;;;;;4.10;3.20;;;;;;;7.57;57.14;98982.14;106778;1260;1065488;-73
2023/03/08 10:08:06;;;;;;;3.20;2.90;;;;;;;7.62;55.84;98984.40;106829;1258;1070661;-73
2023/03/08 10:13:23;;;;;;;4.40;2.90;;;;;;;7.85;55.78;98977.01;106868;1257;1051449;-72
2023/03/08 10:18:38;;;;;;;3.40;3.10;;;;;;;7.54;55.81;98982.15;106785;1258;1058527;-73
2023/03/08 10:23:32;;;;;;;4.60;3.70;;;;;;;7.15;55.99;98985.34;106849;1257;1072454;-73
2023/03/08 10:28:26;;;;;;;6.00;3.60;;;;;;;6.73;57.29;98983.64;106878;1257;1065695;-72
2023/03/08 10:33:24;;;;;;;4.60;4.00;;;;;;;6.18;57.08;98992.95;106854;1262;1070280;-73
2023/03/08 10:38:19;;;;;;;;;;;;;;;5.82;57.91;98992.46;106903;1257;1053172;-73
2023/03/08 10:43:41;;;;;;;6.50;3.50;;;;;;;6.06;58.07;98989.09;106882;1262;1016469;-73
2023/03/08 10:48:43;;;;;;;5.70;3.10;;;;;;;5.96;57.77;98985.72;106883;1258;1075701;-73
2023/03/08 10:54:05;;;;;;;4.20;3.80;;;;;;;5.57;57.95;98987.25;106838;1257;1065542;-73
2023/03/08 10:58:59;;;;;;;4.80;3.00;;;;;;;5.65;57.60;98984.23;106879;1260;1073233;-73
2023/03/08 11:04:15;;;;;;;6.70;3.50;;;;;;;5.31;58.51;98993.52;106934;1258;1050348;-73
2023/03/08 11:09:22;;;;;;;3.90;3.60;;;;;;;4.93;58.65;98994.48;106959;1257;1058097;-74
2023/03/08 11:14:17;;;;;;;7.20;3.90;;;;;;;4.54;58.82;99000.67;106911;1257;1075106;-73
2023/03/08 11:19:19;;;;;;;6.50;3.80;;;;;;;4.31;58.79;99009.61;106897;1262;1016455;-73
2023/03/08 11:24:33;;;;;;;5.70;4.00;;;;;;;4.06;59.57;99008.36;106812;1257;1071773;-73
2023/03/08 11:29:45;;;;;;;4.50;3.70;;;;;;;4.09;59.52;99004.46;106939;1261;1051628;-73
2023/03/08 11:34:41;;;;;;;5.80;3.50;;;;;;;4.70;58.99;98992.11;106954;1259;1058057;-73
2023/03/08 11:40:10;;;;;;;8.80;4.90;;;;;;;4.70;58.69;98993.50;106947;1263;1073055;-73
2023/03/08 11:45:06;;;;;;;;;;;;;;;5.06;58.92;98984.29;106977;1257;1069035;-73
2023/03/08 11:50:43;;;;;;;6.70;3.50;;;;;;;6.57;57.60;98968.58;106961;1257;1070885;-73
2023/03/08 11:56:03;;;;;;;6.50;4.50;;;;;;;7.00;56.95;98961.34;106491;1267;1049869;-73
2023/03/08 12:01:09;;;;;;;5.10;4.40;;;;;;;7.75;56.54;98955.96;106474;1267;1058645;-73
2023/03/08 12:06:17;;;;;;;5.00;3.60;;;;;;;7.06;56.64;98955.52;106459;1270;1072541;-73
2023/03/08 12:11:31;;;;;;;4.90;3.80;;;;;;;6.35;56.80;98960.54;106550;1267;1068134;-73
2023/03/08 12:16:38;;;;;;;5.20;4.40;;;;;;;5.88;57.69;98963.63;106347;1270;1070289;-73
2023/03/08 12:22:12;;;;;;;4.50;4.10;;;;;;;5.64;57.57;98959.65;106365;1267;1051321;-73
2023/03/08 12:27:44;;;;;;;3.90;3.50;;;;;;;5.35;57.74;98959.73;106389;1267;1057971;-73
2023/03/08 12:32:44;;;;;;;5.60;3.50;;;;;;;5.19;57.89;98964.88;106804;1257;1073994;-73
2023/03/08 12:37:55;;;;;;;4.60;3.60;;;;;;;5.09;58.24;98965.29;107005;1257;1066566;-73
2023/03/08 12:42:49;;;;;;;4.40;3.40;;;;;;;5.09;58.42;98965.31;107009;1257;1071840;-73
2023/03/08 12:47:42;;;;;;;8.20;3.50;;;;;;;5.15;58.13;98965.70;107020;1257;1019391;-73
2023/03/08 12:52:39;;;;;;;4.80;3.70;;;;;;;5.61;58.24;98963.06;107082;1257;1017039;-73
2023/03/08 12:57:45;;;;;;;6.30;3.40;;;;;;;6.02;57.52;98964.10;107186;1257;1072174;-73
2023/03/08 13:02:45;;;;;;;4.40;2.70;;;;;;;6.46;56.12;98967.13;107150;1256;1065257;-73
2023/03/08 13:07:47;;;;;;;3.80;2.70;;;;;;;6.40;55.17;98967.29;107083;1258;1080502;-73
2023/03/08 13:13:20;;;;;;;11.40;5.30;;;;;;;6.63;55.93;98959.80;107116;1256;1051235;-73
2023/03/08 13:18:30;;;;;;;3.20;2.70;;;;;;;7.51;56.30;98951.29;107192;1257;1059066;-73
2023/03/08 13:23:35;;;;;;;5.50;3.70;;;;;;;8.02;55.17;98945.42;107156;1256;1072629;-73
2023/03/08 13:28:37;;;;;;;3.90;3.00;;;;;;;8.28;54.81;98938.83;107105;1257;1065534;-73
2023/03/08 13:33:52;;;;;;;3.60;3.20;;;;;;;7.93;54.47;98945.77;107075;1256;1070413;-73
2023/03/08 13:38:54;;;;;;;6.90;3.60;;;;;;;7.81;54.26;98948.89;107108;1257;1050713;-73
2023/03/08 13:43:47;;;;;;;3.70;3.20;;;;;;;7.18;53.49;98947.44;107168;1256;1058639;-73
2023/03/08 13:48:52;;;;;;;4.90;3.30;;;;;;;6.59;54.08;98947.41;107155;1256;1072769;-73
2023/03/08 13:53:49;;;;;;;5.80;3.50;;;;;;;6.30;54.36;98940.90;107134;1256;1066636;-73
2023/03/08 13:58:48;;;;;;;4.80;3.60;;;;;;;6.29;54.42;98937.10;107131;1256;1016103;-74
2023/03/08 14:03:50;;;;;;;5.60;3.50;;;;;;;6.65;55.05;98928.33;107109;1256;1053368;-73
2023/03/08 14:09:01;;;;;;;3.90;3.30;;;;;;;6.85;54.44;98918.23;107168;1256;1058123;-73
2023/03/08 14:13:59;;;;;;;4.20;3.30;;;;;;;6.81;54.08;98922.70;107197;1256;1072408;-73
2023/03/08 14:18:54;;;;;;;5.00;3.70;;;;;;;6.57;53.67;98917.45;107111;1257;1064951;-73
2023/03/08 14:24:12;;;;;;;;;;;;;;;;;;;;;
2023/03/08 14:29:27;;;;;;;4.90;3.30;;;;;;;5.83;54.09;98928.01;107127;1256;1058045;-73
2023/03/08 14:34:24;;;;;;;7.00;3.50;;;;;;;5.64;54.50;98925.95;107085;1257;1072907;-73
2023/03/08 14:39:20;;;;;;;4.80;3.80;;;;;;;5.59;55.07;98912.49;107081;1256;1065246;-73
2023/03/08 14:44:24;;;;;;;6.70;4.20;;;;;;;5.47;55.19;98903.64;107156;1257;1073395;-73
2023/03/08 14:49:28;;;;;;;4.60;3.70;;;;;;;5.37;55.06;98900.64;107175;1256;1050653;-73
2023/03/08 14:54:42;;;;;;;8.20;4.50;;;;;;;5.20;55.02;98896.70;107148;1260;1058870;-73
2023/03/08 14:59:40;;;;;;;5.80;4.20;;;;;;;5.08;55.24;98895.38;107181;1256;1075253;-73
2023/03/08 15:04:32;;;;;;;6.80;4.50;;;;;;;5.02;55.70;98891.54;107167;1257;1066289;-72
2023/03/08 15:09:28;;;;;;;6.00;3.70;;;;;;;4.98;56.07;98887.73;107020;1256;1016137;-72
2023/03/08 15:14:21;;;;;;;3.90;3.50;;;;;;;4.86;55.95;98876.80;107025;1256;1051155;-73
2023/03/08 15:19:13;;;;;;;4.70;3.70;;;;;;;4.69;55.75;98876.45;107022;1256;1016163;-72
2023/03/08 15:24:07;;;;;;;7.90;4.20;;;;;;;4.53;55.94;98873.17;107086;1256;1015968;-72
2023/03/08 15:29:02;;;;;;;5.70;4.00;;;;;;;4.40;56.37;98871.98;106963;1259;1018234;-72
2023/03/08 15:33:55;;;;;;;5.60;3.90;;;;;;;4.28;56.35;98874.58;107017;1256;1071299;-72
2023/03/08 15:38:48;;;;;;;7.30;3.60;;;;;;;4.18;56.50;98870.16;107044;1255;1016489;-72
2023/03/08 15:43:41;;;;;;;5.10;3.80;;;;;;;4.10;56.67;98869.71;107050;1256;1016301;-72
2023/03/08 15:48:37;;;;;;;6.40;5.40;;;;;;;3.97;56.40;98865.23;107085;1256;1016497;-73
2023/03/08 15:53:30;;;;;;;3.50;3.00;;;;;;;3.88;57.00;98859.98;107077;1259;1065668;-72
2023/03/08 15:58:27;;;;;;;5.70;4.00;;;;;;;3.80;57.06;98860.05;107067;1258;1070609;-72
2023/03/08 16:03:27;;;;;;;7.40;4.30;;;;;;;3.71;57.12;98871.22;107014;1256;1016401;-72
2023/03/08 16:08:27;;;;;;;6.10;4.40;;;;;;;3.65;57.18;98874.21;107101;1255;1057036;-73
2023/03/08 16:13:21;;;;;;;;;;;;;;;3.58;57.81;98878.05;107106;1256;1075363;-72
2023/03/08 16:18:15;;;;;;;9.30;5.70;;;;;;;3.50;58.27;98881.51;107065;1255;1016401;-74
2023/03/08 16:23:08;;;;;;;9.80;6.30;;;;;;;3.43;58.89;98876.61;107082;1256;1018544;-74
2023/03/08 16:28:01;;;;;;;8.90;5.90;;;;;;;3.37;59.09;98877.72;107079;1256;1016389;-73
2023/03/08 16:32:54;;;;;;;8.70;6.50;;;;;;;3.29;59.40;98876.23;107127;1256;1016740;-73
2023/03/08 16:37:47;;;;;;;11.50;5.90;;;;;;;3.25;59.61;98875.46;107085;1255;1017909;-73
2023/03/08 16:42:40;;;;;;;12.20;5.80;;;;;;;3.19;59.99;98871.93;107141;1256;1016168;-74
2023/03/08 16:47:32;;;;;;;13.90;7.00;;;;;;;3.11;60.52;98874.70;107120;1255;1016194;-74
2023/03/08 16:52:25;;;;;;;7.80;5.20;;;;;;;3.02;60.50;98875.58;107061;1255;1017050;-74
2023/03/08 16:57:20;;;;;;;8.10;6.10;;;;;;;2.98;60.54;98877.56;107038;1256;1016419;-74
2023/03/08 17:02:19;;;;;;;8.50;5.20;;;;;;;2.96;60.84;98873.95;106999;1259;1075488;-74
2023/03/08 17:07:12;;;;;;;6.50;5.00;;;;;;;2.95;60.89;98873.77;107088;1255;1065595;-74
2023/03/08 17:12:07;;;;;;;6.50;5.60;;;;;;;2.91;60.92;98874.19;107008;1259;1017218;-73
2023/03/08 17:17:00;;;;;;;8.60;5.50;;;;;;;2.90;61.15;98867.48;107027;1256;1050834;-74
2023/03/08 17:21:53;;;;;;;9.30;6.10;;;;;;;2.88;61.54;98859.07;107077;1256;1016544;-73
2023/03/08 17:26:49;;;;;;;8.60;6.20;;;;;;;2.86;61.70;98862.80;107032;1257;1016378;-73
2023/03/08 17:31:43;;;;;;;9.80;5.90;;;;;;;2.82;61.94;98865.48;107103;1255;1065918;-74
2023/03/08 17:36:36;;;;;;;13.20;8.00;;;;;;;2.78;62.56;98867.10;107083;1256;1016523;-74
2023/03/08 17:41:31;;;;;;;7.70;5.80;;;;;;;2.72;62.60;98869.56;107054;1256;1016207;-74
2023/03/08 17:46:26;;;;;;;9.30;6.00;;;;;;;2.69;63.12;98865.06;107107;1256;1058804;-74
2023/03/08 17:51:22;;;;;;;8.00;6.60;;;;;;;2.66;63.41;98865.35;107104;1256;1074353;-74
2023/03/08 17:56:21;;;;;;;8.60;6.80;;;;;;;2.62;63.67;98861.00;107058;1256;1070390;-74
2023/03/08 18:01:20;;;;;;;12.50;7.60;;;;;;;2.60;64.17;98861.45;107097;1256;1071414;-73
2023/03/08 18:06:24;;;;;;;10.90;7.50;;;;;;;2.59;64.33;98858.71;107116;1256;1051499;-74
2023/03/08 18:11:17;;;;;;;12.20;7.70;;;;;;;2.57;64.58;98858.67;107066;1256;1061389;-74
2023/03/08 18:16:10;;;;;;;11.50;7.30;;;;;;;2.56;64.65;98857.96;107095;1256;1018225;-73
2023/03/08 18:21:04;;;;;;;9.80;7.40;;;;;;;2.54;65.08;98854.69;107110;1256;1016750;-74
2023/03/08 18:26:05;;;;;;;12.70;8.30;;;;;;;2.50;65.53;98853.74;107026;1256;1071662;-73
2023/03/08 18:30:58;;;;;;;10.30;7.90;;;;;;;2.45;65.95;98849.71;107112;1256;1016503;-73
2023/03/08 18:35:58;;;;;;;11.30;7.60;;;;;;;2.37;66.62;98849.23;107084;1259;1016349;-73
2023/03/08 18:40:51;;;;;;;11.10;7.90;;;;;;;2.30;66.59;98846.16;107065;1256;1075746;-73
2023/03/08 18:45:55;;;;;;;13.30;9.30;;;;;;;2.25;67.34;98848.47;107170;1256;1016307;-74
2023/03/08 18:50:48;;;;;;;15.30;9.80;;;;;;;2.19;67.47;98847.15;107135;1256;1070789;-73
2023/03/08 18:55:52;;;;;;;14.60;10.20;;;;;;;2.11;68.08;98845.27;107091;1256;1016420;-73
2023/03/08 19:00:45;;;;;;;12.70;9.20;;;;;;;2.04;68.34;98845.64;107111;1256;1058838;-73
2023/03/08 19:05:38;;;;;;;15.60;9.70;;;;;;;1.98;68.90;98843.80;107108;1256;1016292;-73
2023/03/08 19:10:31;;;;;;;18.30;12.20;;;;;;;1.93;69.27;98843.36;107091;1256;1018133;-74
2023/03/08 19:15:25;;;;;;;17.60;12.20;;;;;;;1.87;69.32;98843.75;107057;1256;1017239;-73
2023/03/08 19:20:18;;;;;;;15.90;12.10;;;;;;;1.80;69.81;98836.59;107189;1255;1016475;-74
2023/03/08 19:25:10;;;;;;;16.90;12.70;;;;;;;1.72;70.48;98824.27;107023;1259;1015979;-74
2023/03/08 19:30:03;;;;;;;19.70;12.50;;;;;;;1.69;70.71;98824.56;107020;1256;1016095;-73
2023/03/08 19:34:56;;;;;;;20.50;12.90;;;;;;;1.67;71.16;98815.46;107091;1256;1016382;-73
2023/03/08 19:39:50;;;;;;;17.90;12.70;;;;;;;1.63;71.30;98815.38;106957;1256;1016150;-74
2023/03/08 19:44:47;;;;;;;16.20;11.90;;;;;;;1.58;71.46;98806.55;107030;1256;1016286;-74
2023/03/08 19:49:40;;;;;;;18.80;12.90;;;;;;;1.54;71.92;98804.23;107010;1256;1058476;-74
2023/03/08 19:54:33;;;;;;;21.50;14.50;;;;;;;1.52;71.92;98792.10;106980;1256;1016594;-73
2023/03/08 19:59:26;;;;;;;21.10;13.30;;;;;;;1.51;71.96;98780.45;107005;1256;1016020;-73
2023/03/08 20:04:20;;;;;;;19.80;13.90;;;;;;;1.49;72.27;98773.39;106896;1256;1016298;-73
2023/03/08 20:09:20;;;;;;;21.80;15.80;;;;;;;1.50;72.49;98768.48;107066;1256;1016068;-73
2023/03/08 20:14:13;;;;;;;22.20;14.50;;;;;;;1.50;72.49;98765.56;107080;1256;1058263;-73
2023/03/08 20:19:06;;;;;;;23.60;15.40;;;;;;;1.49;72.59;98753.27;107118;1256;1016092;-73
2023/03/08 20:23:59;;;;;;;20.40;14.60;;;;;;;1.50;72.68;98751.91;107168;1256;1016199;-73
2023/03/08 20:28:53;;;;;;;21.00;14.10;;;;;;;1.49;72.96;98741.30;107187;1256;1015920;-73
2023/03/08 20:33:46;;;;;;;18.70;12.10;;;;;;;1.46;72.95;98743.95;107043;1256;1015969;-73
2023/03/08 20:38:40;;;;;;;16.90;12.60;;;;;;;1.46;73.27;98738.16;107085;1256;1016373;-74
2023/03/08 20:43:33;;;;;;;17.70;13.00;;;;;;;1.45;73.18;98736.26;107110;1256;1016263;-73
2023/03/08 20:48:27;;;;;;;19.20;13.40;;;;;;;1.43;73.57;98737.25;107073;1257;1016407;-73
2023/03/08 20:53:20;;;;;;;17.70;12.80;;;;;;;1.43;73.44;98724.44;106881;1257;1016488;-72
2023/03/08 20:58:12;;;;;;;18.60;13.50;;;;;;;1.44;73.71;98711.65;107003;1256;1016430;-73
2023/03/08 21:03:05;;;;;;;14.40;12.00;;;;;;;1.44;74.07;98700.55;107003;1256;1016519;-73
2023/03/08 21:07:58;;;;;;;18.10;13.00;;;;;;;1.44;73.77;98694.42;106948;1259;1018919;-73
2023/03/08 21:12:51;;;;;;;16.60;11.70;;;;;;;1.44;73.79;98688.42;107025;1256;1016304;-73
2023/03/08 21:17:44;;;;;;;19.30;12.50;;;;;;;1.40;73.69;98680.16;107024;1256;1016378;-73
2023/03/08 21:22:37;;;;;;;19.50;11.20;;;;;;;1.39;73.95;98675.02;106994;1259;1018132;-73
2023/03/08 21:27:30;;;;;;;17.80;12.10;;;;;;;1.38;74.21;98672.42;107037;1256;1016370;-73
2023/03/08 21:32:23;;;;;;;16.00;11.40;;;;;;;1.36;74.20;98671.03;106983;1256;1016147;-73
2023/03/08 21:37:19;;;;;;;15.50;12.00;;;;;;;1.34;74.38;98662.27;107069;1259;1065529;-73
2023/03/08 21:42:12;;;;;;;16.70;11.00;;;;;;;1.32;74.38;98653.88;106988;1256;1016332;-73
2023/03/08 21:47:06;;;;;;;21.00;13.90;;;;;;;1.31;74.33;98644.47;106927;1258;1016778;-73
2023/03/08 21:51:59;;;;;;;20.40;14.00;;;;;;;1.28;74.60;98636.55;107033;1256;1016346;-73
2023/03/08 21:56:52;;;;;;;20.40;15.40;;;;;;;1.27;74.59;98626.79;106999;1256;1017005;-73
2023/03/08 22:01:47;;;;;;;19.60;14.30;;;;;;;1.24;74.86;98623.50;107040;1256;1018075;-73
2023/03/08 22:06:40;;;;;;;17.70;13.20;;;;;;;1.22;74.95;98611.33;107087;1256;1071071;-73
2023/03/08 22:11:33;;;;;;;16.50;11.90;;;;;;;1.21;75.26;98605.34;106966;1256;1016472;-73
2023/03/08 22:16:27;;;;;;;16.60;10.80;;;;;;;1.19;74.86;98602.74;106988;1256;1016304;-73
2023/03/08 22:21:20;;;;;;;14.00;10.30;;;;;;;1.18;75.26;98606.31;107089;1257;1016489;-73
2023/03/08 22:26:13;;;;;;;10.60;7.20;;;;;;;1.17;74.94;98604.23;107061;1256;1018446;-73
2023/03/08 22:31:15;;;;;;;11.00;7.80;;;;;;;1.14;75.26;98601.62;107020;1256;1016462;-73
2023/03/08 22:36:11;;;;;;;12.00;8.20;;;;;;;1.12;75.34;98601.24;107029;1256;1051073;-73
2023/03/08 22:41:13;;;;;;;10.90;7.90;;;;;;;1.11;75.37;98600.55;107086;1256;1058220;-74
2023/03/08 22:46:18;;;;;;;11.50;8.00;;;;;;;1.09;75.54;98597.25;107029;1256;1072547;-72
2023/03/08 22:51:12;;;;;;;11.80;8.10;;;;;;;1.06;75.61;98594.30;107011;1256;1067782;-72